createdAt,value
2019-04-28T00:00:11.448Z,86.1816
2019-04-28T00:01:16.229Z,86.1816
2019-04-28T00:02:22.488Z,86.2854
2019-04-28T00:03:27.929Z,86.2854
2019-04-28T00:04:33.794Z,86.2854
2019-04-28T00:05:39.072Z,86.2854
2019-04-28T00:06:44.208Z,86.1816
2019-04-28T00:07:50.573Z,86.0779
2019-04-28T00:08:57.851Z,86.0779
2019-04-28T00:10:02.253Z,86.0779
2019-04-28T00:11:07.229Z,86.0779
2019-04-28T00:12:11.812Z,86.0779
2019-04-28T00:13:16.802Z,86.0779
2019-04-28T00:14:22.064Z,86.1816
2019-04-28T00:15:28.081Z,86.2854
2019-04-28T00:16:34.147Z,86.2854
2019-04-28T00:17:39.854Z,86.2854
2019-04-28T00:18:43.204Z,86.2854
2019-04-28T00:19:48.925Z,86.1816
2019-04-28T00:20:54.857Z,86.0779
2019-04-28T00:22:01.040Z,86.0779
2019-04-28T00:23:07.126Z,85.9741
2019-04-28T00:24:12.892Z,85.7666
2019-04-28T00:25:18.096Z,85.7666
2019-04-28T00:26:23.971Z,85.7056
2019-04-28T00:27:29.220Z,85.4980
2019-04-28T00:28:35.006Z,85.3943
2019-04-28T00:29:43.554Z,85.4980
2019-04-28T00:30:51.724Z,85.4980
2019-04-28T00:31:56.823Z,85.6018
2019-04-28T00:33:01.805Z,85.7056
2019-04-28T00:34:06.896Z,85.7056
2019-04-28T00:35:12.863Z,85.7056
2019-04-28T00:36:18.310Z,85.6018
2019-04-28T00:37:23.857Z,85.6018
2019-04-28T00:38:28.939Z,85.6018
2019-04-28T00:39:34.802Z,85.4980
2019-04-28T00:40:41.366Z,85.3943
2019-04-28T00:41:46.256Z,85.4309
2019-04-28T00:42:51.270Z,85.3271
2019-04-28T00:43:57.100Z,85.4309
2019-04-28T00:45:02.817Z,85.4309
2019-04-28T00:46:08.869Z,85.5347
2019-04-28T00:47:13.931Z,85.7422
2019-04-28T00:48:20.929Z,85.7422
2019-04-28T00:49:27.344Z,85.7422
2019-04-28T00:50:33.200Z,85.6384
2019-04-28T00:51:38.311Z,85.7422
2019-04-28T00:52:43.928Z,85.6384
2019-04-28T00:53:50.904Z,85.6384
2019-04-28T00:54:56.892Z,85.5347
2019-04-28T00:56:02.838Z,85.5347
2019-04-28T00:57:07.866Z,85.5347
2019-04-28T00:58:13.967Z,85.4309
2019-04-28T00:59:21.574Z,85.5347
2019-04-28T01:00:26.866Z,85.6384
2019-04-28T01:01:31.887Z,85.7422
2019-04-28T01:02:37.834Z,85.7422
2019-04-28T01:03:42.848Z,85.7422
2019-04-28T01:04:47.244Z,85.7422
2019-04-28T01:05:52.836Z,85.7422
2019-04-28T01:06:57.239Z,85.7056
2019-04-28T01:08:02.209Z,85.7056
2019-04-28T01:09:07.808Z,85.7056
2019-04-28T01:10:12.839Z,85.6018
2019-04-28T01:11:17.843Z,85.4980
2019-04-28T01:12:22.805Z,85.2905
2019-04-28T01:13:27.844Z,85.0830
2019-04-28T01:14:32.884Z,84.8755
2019-04-28T01:15:39.677Z,84.7046
2019-04-28T01:16:44.255Z,84.4971
2019-04-28T01:17:49.862Z,84.2896
2019-04-28T01:18:55.088Z,84.2896
2019-04-28T01:20:00.859Z,84.4971
2019-04-28T01:21:05.853Z,84.6008
2019-04-28T01:22:11.259Z,84.4971
2019-04-28T01:23:16.927Z,84.2896
2019-04-28T01:24:22.855Z,84.0820
2019-04-28T01:25:29.844Z,83.7708
2019-04-28T01:26:37.234Z,83.7708
2019-04-28T01:27:42.197Z,83.9783
2019-04-28T01:28:47.217Z,83.9783
2019-04-28T01:30:05.096Z,84.0820
2019-04-28T01:31:02.230Z,84.0820
2019-04-28T01:32:07.848Z,83.8745
2019-04-28T01:33:12.949Z,83.6670
2019-04-28T01:34:20.355Z,83.7708
2019-04-28T01:35:25.886Z,83.5632
2019-04-28T01:36:30.846Z,83.2520
2019-04-28T01:37:36.101Z,83.2520
2019-04-28T01:38:41.867Z,82.9407
2019-04-28T01:39:46.220Z,82.7332
2019-04-28T01:40:51.918Z,82.7332
2019-04-28T01:41:59.423Z,82.9407
2019-04-28T01:43:04.816Z,83.3557
2019-04-28T01:44:10.314Z,83.4595
2019-04-28T01:45:15.225Z,83.5632
2019-04-28T01:46:20.214Z,83.4595
2019-04-28T01:47:24.767Z,83.1482
2019-04-28T01:48:29.619Z,83.0444
2019-04-28T01:49:36.857Z,82.9407
2019-04-28T01:50:41.823Z,83.0811
2019-04-28T01:51:46.853Z,83.3923
2019-04-28T01:52:51.990Z,83.5999
2019-04-28T01:53:57.910Z,83.8074
2019-04-28T01:55:03.872Z,83.9111
2019-04-28T01:56:10.535Z,84.1187
2019-04-28T01:57:16.344Z,84.3262
2019-04-28T01:58:21.379Z,84.3262
2019-04-28T01:59:27.002Z,84.3262
2019-04-28T02:00:32.893Z,84.2224
2019-04-28T02:01:39.996Z,84.0149
2019-04-28T02:02:46.259Z,83.9111
2019-04-28T02:03:51.219Z,83.9111
2019-04-28T02:04:56.999Z,83.9111
2019-04-28T02:06:02.974Z,83.9111
2019-04-28T02:07:10.876Z,83.9111
2019-04-28T02:08:16.798Z,84.0149
2019-04-28T02:09:21.806Z,83.9478
2019-04-28T02:10:26.333Z,83.9478
2019-04-28T02:11:31.516Z,83.7402
2019-04-28T02:12:36.836Z,83.6365
2019-04-28T02:13:42.137Z,83.5327
2019-04-28T02:14:47.199Z,83.5327
2019-04-28T02:15:52.894Z,83.6365
2019-04-28T02:16:58.267Z,83.4290
2019-04-28T02:18:04.123Z,83.2214
2019-04-28T02:19:10.768Z,83.1177
2019-04-28T02:20:15.208Z,83.1604
2019-04-28T02:21:20.955Z,83.2642
2019-04-28T02:22:26.237Z,83.3679
2019-04-28T02:23:31.794Z,83.5754
2019-04-28T02:24:36.912Z,83.8867
2019-04-28T02:25:42.862Z,84.0942
2019-04-28T02:26:47.807Z,84.3018
2019-04-28T02:27:52.841Z,84.4055
2019-04-28T02:29:00.241Z,84.5093
2019-04-28T02:30:04.920Z,84.7168
2019-04-28T02:31:11.589Z,84.8206
2019-04-28T02:32:16.221Z,84.9243
2019-04-28T02:33:21.921Z,85.0281
2019-04-28T02:34:30.945Z,85.1318
2019-04-28T02:35:36.283Z,85.1318
2019-04-28T02:36:41.902Z,85.1318
2019-04-28T02:37:50.030Z,85.0952
2019-04-28T02:38:55.765Z,85.1990
2019-04-28T02:40:03.321Z,85.1990
2019-04-28T02:41:11.123Z,85.1990
2019-04-28T02:42:17.420Z,85.1990
2019-04-28T02:43:21.792Z,85.2600
2019-04-28T02:44:31.077Z,85.2600
2019-04-28T02:45:37.871Z,85.1562
2019-04-28T02:46:43.874Z,85.0525
2019-04-28T02:47:48.827Z,84.9487
2019-04-28T02:48:54.227Z,84.8450
2019-04-28T02:50:00.962Z,84.9487
2019-04-28T02:51:07.000Z,84.9121
2019-04-28T02:52:12.883Z,84.9121
2019-04-28T02:53:21.070Z,84.9121
2019-04-28T02:54:26.901Z,84.9121
2019-04-28T02:55:33.106Z,85.0159
2019-04-28T02:56:43.406Z,85.0159
2019-04-28T02:57:48.223Z,85.1196
2019-04-28T02:58:52.881Z,85.2234
2019-04-28T02:59:57.321Z,85.3271
2019-04-28T03:01:15.226Z,85.3271
2019-04-28T03:02:12.818Z,85.2234
2019-04-28T03:03:17.823Z,85.2234
2019-04-28T03:04:22.262Z,85.2234
2019-04-28T03:05:27.793Z,85.0830
2019-04-28T03:06:32.214Z,84.9792
2019-04-28T03:07:37.899Z,84.9792
2019-04-28T03:08:43.931Z,84.9792
2019-04-28T03:09:51.990Z,85.0830
2019-04-28T03:11:00.630Z,85.0830
2019-04-28T03:12:07.005Z,85.0830
2019-04-28T03:13:13.387Z,85.0830
2019-04-28T03:14:20.852Z,85.0830
2019-04-28T03:15:26.221Z,85.1868
2019-04-28T03:16:31.804Z,85.1868
2019-04-28T03:17:36.857Z,85.1868
2019-04-28T03:18:41.783Z,85.2905
2019-04-28T03:19:46.837Z,85.3943
2019-04-28T03:20:52.071Z,85.4980
2019-04-28T03:21:57.787Z,85.6018
2019-04-28T03:23:02.909Z,85.6018
2019-04-28T03:24:11.002Z,85.6018
2019-04-28T03:25:20.401Z,85.6018
2019-04-28T03:26:25.885Z,85.6018
2019-04-28T03:27:31.387Z,85.7056
2019-04-28T03:28:36.930Z,85.7056
2019-04-28T03:29:42.938Z,85.7056
2019-04-28T03:30:48.230Z,85.7056
2019-04-28T03:32:15.692Z,85.7056
2019-04-28T03:33:11.848Z,85.8093
2019-04-28T03:34:15.252Z,85.8093
2019-04-28T03:35:22.919Z,85.7056
2019-04-28T03:36:32.955Z,85.8093
2019-04-28T03:37:41.137Z,85.7056
2019-04-28T03:38:46.900Z,85.6018
2019-04-28T03:39:52.230Z,85.6018
2019-04-28T03:40:57.942Z,85.6018
2019-04-28T03:42:03.905Z,85.4980
2019-04-28T03:43:10.940Z,85.4980
2019-04-28T03:44:20.784Z,85.4980
2019-04-28T03:45:26.905Z,85.4980
2019-04-28T03:46:32.867Z,85.6018
2019-04-28T03:47:36.929Z,85.6018
2019-04-28T03:48:42.359Z,85.6018
2019-04-28T03:49:46.217Z,85.4980
2019-04-28T03:50:51.885Z,85.6018
2019-04-28T03:51:56.326Z,85.5591
2019-04-28T03:53:01.887Z,85.5591
2019-04-28T03:54:06.884Z,85.5591
2019-04-28T03:55:11.865Z,85.5591
2019-04-28T03:56:17.916Z,85.5591
2019-04-28T03:57:23.894Z,85.5591
2019-04-28T03:58:31.054Z,85.5591
2019-04-28T03:59:36.872Z,85.5591
2019-04-28T04:00:41.852Z,85.5591
2019-04-28T04:01:56.725Z,85.5591
2019-04-28T04:03:00.596Z,85.5591
2019-04-28T04:04:07.134Z,85.6628
2019-04-28T04:05:12.933Z,85.7666
2019-04-28T04:06:18.746Z,85.7666
2019-04-28T04:07:23.220Z,85.7666
2019-04-28T04:08:30.954Z,85.7666
2019-04-28T04:09:36.836Z,85.7666
2019-04-28T04:10:40.487Z,85.7300
2019-04-28T04:11:45.967Z,85.7300
2019-04-28T04:12:51.962Z,85.8337
2019-04-28T04:13:57.912Z,85.9375
2019-04-28T04:15:04.150Z,85.9375
2019-04-28T04:16:10.375Z,85.9375
2019-04-28T04:17:15.807Z,86.0413
2019-04-28T04:18:21.226Z,85.9375
2019-04-28T04:19:26.231Z,85.9375
2019-04-28T04:20:31.883Z,85.9375
2019-04-28T04:21:40.483Z,86.0413
2019-04-28T04:22:45.865Z,86.1450
2019-04-28T04:23:51.111Z,86.2488
2019-04-28T04:24:56.235Z,86.2488
2019-04-28T04:26:02.251Z,86.2488
2019-04-28T04:27:10.543Z,86.2488
2019-04-28T04:28:15.837Z,86.2488
2019-04-28T04:29:21.714Z,86.3464
2019-04-28T04:30:26.902Z,86.3464
2019-04-28T04:31:32.010Z,86.3464
2019-04-28T04:32:40.893Z,86.3464
2019-04-28T04:33:46.854Z,86.2488
2019-04-28T04:34:51.904Z,86.2488
2019-04-28T04:35:57.939Z,86.2488
2019-04-28T04:37:03.201Z,86.2488
2019-04-28T04:38:10.463Z,86.2488
2019-04-28T04:39:16.079Z,86.1450
2019-04-28T04:40:21.272Z,86.0413
2019-04-28T04:41:27.002Z,86.0413
2019-04-28T04:42:32.908Z,85.9375
2019-04-28T04:43:41.182Z,86.0413
2019-04-28T04:44:46.230Z,85.8948
2019-04-28T04:45:51.208Z,85.9985
2019-04-28T04:46:56.863Z,85.9985
2019-04-28T04:48:01.429Z,86.1023
2019-04-28T04:49:06.817Z,86.0413
2019-04-28T04:50:13.241Z,86.0413
2019-04-28T04:51:21.286Z,86.0413
2019-04-28T04:52:26.808Z,86.0413
2019-04-28T04:53:31.877Z,86.1450
2019-04-28T04:54:37.017Z,86.1023
2019-04-28T04:55:43.034Z,86.1023
2019-04-28T04:56:50.135Z,85.9985
2019-04-28T04:57:55.835Z,85.9985
2019-04-28T04:59:02.733Z,85.8582
2019-04-28T05:00:10.053Z,85.7544
2019-04-28T05:01:15.220Z,85.6079
2019-04-28T05:02:29.364Z,85.4004
2019-04-28T05:03:31.791Z,85.2966
2019-04-28T05:04:36.796Z,85.1562
2019-04-28T05:05:41.787Z,84.9487
2019-04-28T05:06:46.800Z,84.8450
2019-04-28T05:07:51.869Z,84.8450
2019-04-28T05:08:56.204Z,84.8083
2019-04-28T05:10:01.826Z,84.7046
2019-04-28T05:11:06.864Z,84.7046
2019-04-28T05:12:12.257Z,84.7046
2019-04-28T05:13:17.875Z,84.7046
2019-04-28T05:14:23.955Z,84.7046
2019-04-28T05:15:30.411Z,84.7046
2019-04-28T05:16:35.852Z,84.6008
2019-04-28T05:17:40.320Z,84.6008
2019-04-28T05:18:45.920Z,84.6008
2019-04-28T05:19:51.949Z,84.6008
2019-04-28T05:20:57.227Z,84.6008
2019-04-28T05:22:02.201Z,84.7046
2019-04-28T05:23:09.588Z,84.7046
2019-04-28T05:24:15.959Z,84.7046
2019-04-28T05:25:24.585Z,84.6008
2019-04-28T05:26:34.082Z,84.4971
2019-04-28T05:27:40.026Z,84.3933
2019-04-28T05:28:51.410Z,84.3933
2019-04-28T05:29:56.822Z,84.2896
2019-04-28T05:31:05.892Z,84.1858
2019-04-28T05:32:10.968Z,84.0820
2019-04-28T05:33:17.120Z,83.9783
2019-04-28T05:34:24.102Z,83.9783
2019-04-28T05:35:29.464Z,83.9783
2019-04-28T05:36:40.941Z,83.9783
2019-04-28T05:37:45.275Z,84.0820
2019-04-28T05:38:50.826Z,84.1187
2019-04-28T05:39:55.804Z,84.1187
2019-04-28T05:41:02.820Z,84.0149
2019-04-28T05:42:09.706Z,84.0149
2019-04-28T05:43:16.984Z,84.0149
2019-04-28T05:44:22.853Z,84.0149
2019-04-28T05:45:27.918Z,84.1187
2019-04-28T05:46:33.878Z,84.1187
2019-04-28T05:47:40.793Z,84.1187
2019-04-28T05:48:49.483Z,84.1187
2019-04-28T05:49:56.796Z,84.2224
2019-04-28T05:51:01.924Z,84.3262
2019-04-28T05:52:06.288Z,84.3262
2019-04-28T05:53:11.848Z,84.3689
2019-04-28T05:54:16.828Z,84.3689
2019-04-28T05:55:21.477Z,84.3689
2019-04-28T05:56:26.853Z,84.1614
2019-04-28T05:57:31.919Z,83.9539
2019-04-28T05:58:40.097Z,83.5388
2019-04-28T05:59:45.208Z,83.3313
2019-04-28T06:00:50.856Z,83.2275
2019-04-28T06:01:55.799Z,83.2275
2019-04-28T06:03:00.931Z,83.1238
2019-04-28T06:04:06.374Z,83.1238
2019-04-28T06:05:12.199Z,82.9163
2019-04-28T06:06:17.908Z,82.7087
2019-04-28T06:07:23.884Z,82.6050
2019-04-28T06:08:30.347Z,82.6050
2019-04-28T06:09:35.819Z,82.7087
2019-04-28T06:10:40.940Z,82.8125
2019-04-28T06:11:45.214Z,83.0200
2019-04-28T06:12:50.859Z,83.2642
2019-04-28T06:13:55.845Z,83.3313
2019-04-28T06:15:00.840Z,83.3313
2019-04-28T06:16:05.223Z,83.4351
2019-04-28T06:17:10.980Z,83.4351
2019-04-28T06:18:15.206Z,83.5388
2019-04-28T06:19:20.783Z,83.5388
2019-04-28T06:20:25.853Z,83.6426
2019-04-28T06:21:30.866Z,83.7463
2019-04-28T06:22:35.864Z,84.0942
2019-04-28T06:23:41.169Z,84.1980
2019-04-28T06:24:46.307Z,84.4055
2019-04-28T06:25:51.934Z,84.6130
2019-04-28T06:26:57.167Z,84.8206
2019-04-28T06:28:02.846Z,84.9243
2019-04-28T06:29:07.854Z,85.0281
2019-04-28T06:30:12.213Z,85.2356
2019-04-28T06:31:18.190Z,85.2356
2019-04-28T06:32:23.235Z,85.2966
2019-04-28T06:33:28.778Z,85.4004
2019-04-28T06:34:33.758Z,85.4004
2019-04-28T06:35:38.832Z,85.5042
2019-04-28T06:36:43.952Z,85.5042
2019-04-28T06:37:49.875Z,85.5042
2019-04-28T06:38:54.217Z,85.6079
2019-04-28T06:39:59.904Z,85.5713
2019-04-28T06:41:05.895Z,85.4675
2019-04-28T06:42:10.908Z,85.4675
2019-04-28T06:43:15.940Z,85.3210
2019-04-28T06:44:21.235Z,85.3210
2019-04-28T06:45:26.896Z,85.1135
2019-04-28T06:46:32.951Z,84.8694
2019-04-28T06:47:38.944Z,84.6619
2019-04-28T06:48:44.820Z,84.4177
2019-04-28T06:49:49.207Z,84.1064
2019-04-28T06:50:55.233Z,84.0027
2019-04-28T06:52:00.850Z,83.8989
2019-04-28T06:53:06.554Z,83.8379
2019-04-28T06:54:11.746Z,83.7341
2019-04-28T06:55:16.917Z,83.9783
2019-04-28T06:56:22.790Z,84.1858
2019-04-28T06:57:27.860Z,84.3933
2019-04-28T06:58:32.255Z,84.6008
2019-04-28T06:59:37.253Z,84.6008
2019-04-28T07:00:42.852Z,84.6008
2019-04-28T07:01:47.792Z,84.6008
2019-04-28T07:02:52.938Z,84.6008
2019-04-28T07:03:58.854Z,84.6008
2019-04-28T07:05:03.907Z,84.6008
2019-04-28T07:06:09.877Z,84.6008
2019-04-28T07:07:20.213Z,84.6375
2019-04-28T07:08:25.225Z,84.6375
2019-04-28T07:09:31.582Z,84.4299
2019-04-28T07:10:36.827Z,84.4299
2019-04-28T07:11:42.061Z,84.5337
2019-04-28T07:12:47.839Z,84.5337
2019-04-28T07:13:52.207Z,84.5337
2019-04-28T07:14:57.900Z,84.4299
2019-04-28T07:16:03.246Z,84.4299
2019-04-28T07:17:08.874Z,84.4299
2019-04-28T07:18:14.155Z,84.4299
2019-04-28T07:19:20.673Z,84.4299
2019-04-28T07:20:25.891Z,84.3262
2019-04-28T07:21:30.857Z,84.1858
2019-04-28T07:22:35.471Z,83.9783
2019-04-28T07:23:40.856Z,83.6304
2019-04-28T07:24:45.765Z,83.1116
2019-04-28T07:25:50.898Z,82.9041
2019-04-28T07:26:56.196Z,82.7026
2019-04-28T07:28:01.809Z,82.5989
2019-04-28T07:29:06.831Z,82.3914
2019-04-28T07:30:11.226Z,82.0801
2019-04-28T07:31:16.874Z,81.9763
2019-04-28T07:32:21.998Z,82.0801
2019-04-28T07:33:35.766Z,82.0801
2019-04-28T07:34:37.833Z,82.1838
2019-04-28T07:35:42.228Z,82.2876
2019-04-28T07:36:47.889Z,82.3914
2019-04-28T07:37:54.119Z,82.3914
2019-04-28T07:38:58.868Z,82.4951
2019-04-28T07:40:03.916Z,82.5989
2019-04-28T07:41:09.862Z,82.7026
2019-04-28T07:42:14.826Z,82.8003
2019-04-28T07:43:18.683Z,82.8674
2019-04-28T07:44:23.229Z,82.8674
2019-04-28T07:45:28.209Z,82.7271
2019-04-28T07:46:33.227Z,82.3792
2019-04-28T07:47:38.827Z,81.9275
2019-04-28T07:48:43.920Z,81.4758
2019-04-28T07:49:49.221Z,80.9875
2019-04-28T07:50:54.814Z,80.5420
2019-04-28T07:51:59.888Z,80.1941
2019-04-28T07:53:05.838Z,79.8828
2019-04-28T07:54:11.051Z,79.4373
2019-04-28T07:55:16.884Z,79.0894
2019-04-28T07:56:22.849Z,78.6438
2019-04-28T07:57:28.050Z,78.1616
2019-04-28T07:58:34.235Z,77.8137
2019-04-28T07:59:39.864Z,77.4719
2019-04-28T08:00:45.390Z,77.1301
2019-04-28T08:01:51.566Z,76.9897
2019-04-28T08:02:56.245Z,76.5442
2019-04-28T08:04:03.057Z,75.9277
2019-04-28T08:05:08.778Z,75.3113
2019-04-28T08:06:13.826Z,74.9023
2019-04-28T08:07:18.829Z,75.1465
2019-04-28T08:08:23.822Z,75.3845
2019-04-28T08:09:28.489Z,75.2808
2019-04-28T08:10:33.836Z,74.9084
2019-04-28T08:11:38.877Z,74.7009
2019-04-28T08:12:43.740Z,74.5972
2019-04-28T08:13:48.867Z,74.6338
2019-04-28T08:14:54.919Z,74.9390
2019-04-28T08:16:00.802Z,75.3540
2019-04-28T08:17:05.919Z,74.9390
2019-04-28T08:18:11.201Z,74.9390
2019-04-28T08:19:17.162Z,74.3591
2019-04-28T08:20:22.849Z,72.9553
2019-04-28T08:21:27.212Z,71.3867
2019-04-28T08:22:32.883Z,69.3787
2019-04-28T08:23:47.079Z,67.6147
2019-04-28T08:24:49.845Z,64.3677
2019-04-28T08:25:54.837Z,61.9812
2019-04-28T08:27:00.367Z,57.9102
2019-04-28T08:28:05.856Z,55.6274
2019-04-28T08:29:10.947Z,54.7363
2019-04-28T08:30:16.786Z,54.2053
2019-04-28T08:31:21.895Z,53.2227
2019-04-28T08:32:27.834Z,53.8757
2019-04-28T08:33:33.989Z,55.9570
2019-04-28T08:34:39.885Z,54.2053
2019-04-28T08:35:45.776Z,54.5349
2019-04-28T08:36:50.819Z,53.4729
2019-04-28T08:37:55.214Z,50.8972
2019-04-28T08:39:00.224Z,48.8525
2019-04-28T08:40:05.885Z,48.6511
2019-04-28T08:41:11.237Z,49.7864
2019-04-28T08:42:16.232Z,49.5361
2019-04-28T08:43:22.064Z,49.3896
2019-04-28T08:44:27.850Z,49.6460
2019-04-28T08:45:32.862Z,48.8953
2019-04-28T08:46:37.208Z,49.2493
2019-04-28T08:47:42.885Z,48.3215
2019-04-28T08:48:48.898Z,49.5544
2019-04-28T08:49:54.049Z,48.7183
2019-04-28T08:51:00.005Z,51.2024
2019-04-28T08:52:06.076Z,52.3376
2019-04-28T08:53:13.974Z,52.2888
2019-04-28T08:54:19.886Z,51.8372
2019-04-28T08:55:24.241Z,48.9502
2019-04-28T08:56:28.259Z,47.3755
2019-04-28T08:57:33.843Z,46.9299
2019-04-28T08:58:38.762Z,46.5027
2019-04-28T08:59:43.882Z,45.0562
2019-04-28T09:00:49.231Z,43.4143
2019-04-28T09:01:54.931Z,42.1143
2019-04-28T09:03:00.241Z,44.1162
2019-04-28T09:04:15.194Z,45.1172
2019-04-28T09:05:15.831Z,45.4712
2019-04-28T09:06:21.230Z,45.3308
2019-04-28T09:07:26.860Z,46.0815
2019-04-28T09:08:32.510Z,45.6421
2019-04-28T09:09:37.836Z,44.6045
2019-04-28T09:10:43.865Z,44.2810
2019-04-28T09:11:49.176Z,42.3340
2019-04-28T09:12:54.222Z,42.3706
2019-04-28T09:14:00.208Z,40.2344
2019-04-28T09:15:05.223Z,40.3137
2019-04-28T09:16:10.789Z,41.8762
2019-04-28T09:17:15.900Z,42.6575
2019-04-28T09:18:21.766Z,43.8232
2019-04-28T09:19:26.925Z,46.0999
2019-04-28T09:20:32.163Z,47.5525
2019-04-28T09:21:36.231Z,47.6990
2019-04-28T09:22:41.903Z,48.8525
2019-04-28T09:23:47.237Z,49.8901
2019-04-28T09:24:52.961Z,48.2971
2019-04-28T09:25:58.833Z,47.8882
2019-04-28T09:27:03.969Z,49.6094
2019-04-28T09:28:09.811Z,48.3032
2019-04-28T09:29:14.829Z,46.3013
2019-04-28T09:30:19.892Z,45.9534
2019-04-28T09:31:23.913Z,41.9312
2019-04-28T09:32:29.212Z,40.6616
2019-04-28T09:33:34.796Z,42.3950
2019-04-28T09:34:39.223Z,43.1824
2019-04-28T09:35:44.779Z,41.6321
2019-04-28T09:36:49.971Z,41.1865
2019-04-28T09:38:31.725Z,40.6860
2019-04-28T09:39:36.825Z,41.5100
2019-04-28T09:40:40.224Z,41.9495
2019-04-28T09:41:45.493Z,42.7979
2019-04-28T09:42:50.226Z,43.0603
2019-04-28T09:43:55.899Z,42.4927
2019-04-28T09:45:01.861Z,44.8792
2019-04-28T09:46:06.854Z,46.2402
2019-04-28T09:47:17.772Z,46.4844
2019-04-28T09:48:22.934Z,47.8210
2019-04-28T09:49:28.832Z,49.1394
2019-04-28T09:50:33.854Z,50.0549
2019-04-28T09:51:53.396Z,50.1099
2019-04-28T09:52:57.681Z,49.8108
2019-04-28T09:54:02.850Z,49.5361
2019-04-28T09:55:07.228Z,49.3652
2019-04-28T09:56:12.994Z,48.4375
2019-04-28T09:57:18.765Z,47.4854
2019-04-28T09:58:23.805Z,46.4783
2019-04-28T09:59:29.821Z,45.6726
2019-04-28T10:00:35.013Z,46.2769
2019-04-28T10:01:40.873Z,46.5027
2019-04-28T10:02:46.864Z,46.7285
2019-04-28T10:03:51.823Z,46.9299
2019-04-28T10:04:57.790Z,44.9341
2019-04-28T10:06:02.936Z,45.3369
2019-04-28T10:07:08.228Z,46.4661
2019-04-28T10:08:13.889Z,47.5769
2019-04-28T10:09:18.903Z,47.5525
2019-04-28T10:10:24.756Z,47.4060
2019-04-28T10:11:30.844Z,46.3562
2019-04-28T10:12:36.217Z,45.4285
2019-04-28T10:13:41.996Z,45.5872
2019-04-28T10:14:47.875Z,44.9219
2019-04-28T10:15:52.829Z,44.2810
2019-04-28T10:16:57.825Z,42.2546
2019-04-28T10:18:08.766Z,40.8142
2019-04-28T10:19:13.905Z,39.4775
2019-04-28T10:20:19.214Z,37.4390
2019-04-28T10:21:24.850Z,37.8052
2019-04-28T10:22:51.971Z,38.0676
2019-04-28T10:23:57.207Z,37.4329
2019-04-28T10:25:03.211Z,37.2498
2019-04-28T10:26:08.764Z,34.8633
2019-04-28T10:27:13.811Z,35.1624
2019-04-28T10:28:24.771Z,36.8713
2019-04-28T10:29:32.799Z,38.2874
2019-04-28T10:30:38.900Z,39.8010
2019-04-28T10:31:45.420Z,38.9832
2019-04-28T10:32:57.861Z,38.9648
2019-04-28T10:34:02.873Z,37.7686
2019-04-28T10:35:08.344Z,37.5671
2019-04-28T10:36:13.938Z,38.4827
2019-04-28T10:37:19.795Z,39.5020
2019-04-28T10:38:24.778Z,39.9353
2019-04-28T10:39:35.770Z,39.4775
2019-04-28T10:40:40.873Z,38.8916
2019-04-28T10:41:46.102Z,38.4155
2019-04-28T10:42:52.051Z,38.7146
2019-04-28T10:43:57.796Z,39.1296
2019-04-28T10:45:08.769Z,40.0696
2019-04-28T10:46:13.853Z,41.0889
2019-04-28T10:47:18.835Z,40.3076
2019-04-28T10:48:23.771Z,41.3513
2019-04-28T10:49:28.866Z,41.5710
2019-04-28T10:50:34.184Z,41.9922
2019-04-28T10:51:39.849Z,41.2903
2019-04-28T10:52:44.225Z,41.3086
2019-04-28T10:53:50.429Z,41.6321
2019-04-28T10:54:58.774Z,42.7368
2019-04-28T10:56:03.941Z,42.7368
2019-04-28T10:57:09.859Z,42.2363
2019-04-28T10:58:14.960Z,41.6321
2019-04-28T10:59:20.221Z,42.1143
2019-04-28T11:00:26.160Z,42.1143
2019-04-28T11:01:31.979Z,42.5171
2019-04-28T11:02:38.588Z,41.7114
2019-04-28T11:03:43.819Z,41.6138
2019-04-28T11:04:48.989Z,41.4124
2019-04-28T11:05:55.184Z,40.8081
2019-04-28T11:07:00.889Z,40.4053
2019-04-28T11:08:06.564Z,39.9231
2019-04-28T11:09:11.900Z,39.8193
2019-04-28T11:10:17.228Z,40.3259
2019-04-28T11:11:22.906Z,40.6250
2019-04-28T11:12:28.836Z,40.7471
2019-04-28T11:13:33.200Z,40.7471
2019-04-28T11:14:56.865Z,41.8701
2019-04-28T11:16:01.808Z,41.9922
2019-04-28T11:17:06.896Z,41.6931
2019-04-28T11:18:12.856Z,41.3696
2019-04-28T11:19:17.902Z,40.7654
2019-04-28T11:20:25.255Z,39.3555
2019-04-28T11:21:31.398Z,39.9414
2019-04-28T11:22:36.756Z,41.0461
2019-04-28T11:23:41.237Z,39.6362
2019-04-28T11:24:46.883Z,39.4348
2019-04-28T11:25:50.836Z,39.8376
2019-04-28T11:26:55.214Z,39.9414
2019-04-28T11:28:00.774Z,40.2588
2019-04-28T11:29:05.913Z,39.3738
2019-04-28T11:30:10.757Z,39.7766
2019-04-28T11:31:15.871Z,40.1001
2019-04-28T11:32:20.893Z,41.3086
2019-04-28T11:33:26.993Z,41.6260
2019-04-28T11:34:32.921Z,40.1184
2019-04-28T11:35:38.218Z,40.9424
2019-04-28T11:36:43.940Z,42.1509
2019-04-28T11:37:49.808Z,42.3523
2019-04-28T11:38:54.870Z,42.4561
2019-04-28T11:39:59.833Z,42.7551
2019-04-28T11:41:04.674Z,42.8589
2019-04-28T11:42:10.339Z,42.7551
2019-04-28T11:43:15.226Z,42.5537
2019-04-28T11:44:20.214Z,42.0532
2019-04-28T11:45:26.356Z,42.8589
2019-04-28T11:46:31.792Z,42.2729
2019-04-28T11:47:36.827Z,41.7664
2019-04-28T11:48:41.866Z,41.8701
2019-04-28T11:49:46.235Z,43.1824
2019-04-28T11:50:51.875Z,43.3838
2019-04-28T11:51:56.913Z,43.9880
2019-04-28T11:53:02.817Z,43.3655
2019-04-28T11:54:07.903Z,44.1467
2019-04-28T11:55:13.519Z,42.9016
2019-04-28T11:56:18.991Z,42.6392
2019-04-28T11:57:24.895Z,40.8875
2019-04-28T11:58:31.266Z,40.3503
2019-04-28T11:59:37.115Z,40.0879
2019-04-28T12:00:44.979Z,40.0696
2019-04-28T12:01:50.647Z,40.7349
2019-04-28T12:02:55.307Z,40.6128
2019-04-28T12:04:01.406Z,39.5935
2019-04-28T12:05:06.887Z,39.8743
2019-04-28T12:06:12.851Z,38.2568
2019-04-28T12:07:17.810Z,37.5427
2019-04-28T12:08:23.122Z,39.0381
2019-04-28T12:09:29.093Z,39.9170
2019-04-28T12:10:34.952Z,40.4358
2019-04-28T12:11:40.909Z,40.3564
2019-04-28T12:12:47.166Z,41.0950
2019-04-28T12:13:52.880Z,41.7114
2019-04-28T12:14:57.933Z,41.9312
2019-04-28T12:16:03.828Z,40.8142
2019-04-28T12:17:08.294Z,40.0146
2019-04-28T12:18:14.942Z,40.2954
2019-04-28T12:19:20.955Z,40.9729
2019-04-28T12:20:27.204Z,40.8325
2019-04-28T12:21:32.822Z,40.9363
2019-04-28T12:22:37.779Z,40.2344
2019-04-28T12:23:42.400Z,37.0239
2019-04-28T12:24:47.936Z,34.8267
2019-04-28T12:25:53.909Z,35.2295
2019-04-28T12:26:59.832Z,36.4441
2019-04-28T12:28:04.849Z,37.1582
2019-04-28T12:29:10.234Z,37.4756
2019-04-28T12:30:15.913Z,37.8967
2019-04-28T12:31:22.836Z,37.5122
2019-04-28T12:32:27.846Z,37.7136
2019-04-28T12:33:32.981Z,38.9099
2019-04-28T12:34:38.879Z,38.1104
2019-04-28T12:35:48.084Z,37.6282
2019-04-28T12:36:53.284Z,36.7493
2019-04-28T12:37:58.772Z,37.2681
2019-04-28T12:39:03.772Z,37.9028
2019-04-28T12:40:09.202Z,38.9404
2019-04-28T12:41:14.808Z,39.7034
2019-04-28T12:42:20.129Z,41.1499
2019-04-28T12:43:26.115Z,42.0959
2019-04-28T12:44:31.202Z,40.5212
2019-04-28T12:45:36.915Z,41.1438
2019-04-28T12:46:42.992Z,41.1804
2019-04-28T12:47:49.164Z,42.5354
2019-04-28T12:48:55.155Z,43.0603
2019-04-28T12:50:00.958Z,43.7866
2019-04-28T12:51:09.930Z,44.6411
2019-04-28T12:52:15.818Z,45.8557
2019-04-28T12:53:20.850Z,46.2830
2019-04-28T12:54:25.235Z,46.9910
2019-04-28T12:55:30.849Z,48.3093
2019-04-28T12:56:37.031Z,48.7915
2019-04-28T12:57:43.014Z,48.8464
2019-04-28T12:58:48.824Z,46.8811
2019-04-28T12:59:53.290Z,46.3562
2019-04-28T13:00:58.903Z,46.8567
2019-04-28T13:02:04.847Z,47.3389
2019-04-28T13:03:09.443Z,47.8210
2019-04-28T13:04:17.851Z,47.5220
2019-04-28T13:05:22.842Z,46.3867
2019-04-28T13:06:27.798Z,46.0876
2019-04-28T13:07:32.846Z,46.2646
2019-04-28T13:08:37.853Z,46.2646
2019-04-28T13:09:42.873Z,46.7712
2019-04-28T13:10:48.320Z,46.9727
2019-04-28T13:11:53.249Z,46.6675
2019-04-28T13:12:58.849Z,45.6421
2019-04-28T13:14:04.817Z,45.6421
2019-04-28T13:15:09.783Z,45.0317
2019-04-28T13:16:14.806Z,45.6604